createdAt,value
2024-01-25T00:01:55.875Z,5.63
2024-01-25T00:04:23.062Z,4.40
2024-01-25T00:06:50.329Z,5.47
2024-01-25T00:09:17.611Z,4.80
2024-01-25T00:11:44.524Z,5.43
2024-01-25T00:14:12.406Z,4.80
2024-01-25T00:16:46.337Z,5.27
2024-01-25T00:19:13.217Z,5.33
2024-01-25T00:21:44.780Z,4.83
2024-01-25T00:24:14.758Z,5.57
2024-01-25T00:26:44.590Z,5.50
2024-01-25T00:29:11.372Z,5.07
2024-01-25T00:31:38.102Z,5.40
2024-01-25T00:34:05.825Z,3.93
2024-01-25T00:36:32.972Z,5.77
2024-01-25T00:39:00.076Z,5.47
2024-01-25T00:41:28.485Z,5.00
2024-01-25T00:43:55.356Z,4.53
2024-01-25T00:46:22.419Z,5.93
2024-01-25T00:48:49.895Z,4.30
2024-01-25T00:51:24.542Z,4.47
2024-01-25T00:53:52.048Z,5.20
2024-01-25T00:56:19.401Z,4.57
2024-01-25T00:58:46.457Z,5.23
2024-01-25T01:01:13.898Z,4.83
2024-01-25T01:03:41.395Z,5.53
2024-01-25T01:06:08.935Z,4.30
2024-01-25T01:08:37.161Z,4.77
2024-01-25T01:11:04.372Z,4.80
2024-01-25T01:13:31.390Z,5.43
2024-01-25T01:15:58.696Z,4.57
2024-01-25T01:18:25.876Z,5.60
2024-01-25T01:20:52.854Z,5.37
2024-01-25T01:23:19.770Z,4.53
2024-01-25T01:25:46.888Z,5.63
2024-01-25T01:28:13.909Z,5.23
2024-01-25T01:30:43.752Z,5.63
2024-01-25T01:33:13.661Z,4.93
2024-01-25T01:35:40.990Z,5.00
2024-01-25T01:38:08.570Z,5.40
2024-01-25T01:40:35.321Z,5.80
2024-01-25T01:43:05.130Z,5.47
2024-01-25T01:45:32.184Z,5.00
2024-01-25T01:48:00.517Z,4.87
2024-01-25T01:50:29.137Z,5.50
2024-01-25T01:52:56.473Z,5.20
2024-01-25T01:55:24.566Z,5.87
2024-01-25T01:57:52.400Z,4.50
2024-01-25T02:00:20.815Z,4.53
2024-01-25T02:02:47.842Z,5.13
2024-01-25T02:05:15.200Z,4.77
2024-01-25T02:07:43.263Z,4.73
2024-01-25T02:10:10.802Z,5.13
2024-01-25T02:12:38.392Z,5.20
2024-01-25T02:15:05.704Z,6.07
2024-01-25T02:17:32.621Z,4.73
2024-01-25T02:19:59.835Z,5.00
2024-01-25T02:22:27.034Z,4.87
2024-01-25T02:24:53.874Z,4.87
2024-01-25T02:27:22.011Z,5.73
2024-01-25T02:29:48.860Z,5.57
2024-01-25T02:32:15.687Z,4.93
2024-01-25T02:34:42.896Z,5.17
2024-01-25T02:37:10.073Z,4.80
2024-01-25T02:39:36.912Z,4.63
2024-01-25T02:42:04.038Z,4.77
2024-01-25T02:44:31.056Z,5.03
2024-01-25T02:46:58.103Z,5.13
2024-01-25T02:49:26.203Z,4.97
2024-01-25T02:51:53.168Z,5.80
2024-01-25T02:54:20.347Z,5.50
2024-01-25T02:56:47.121Z,4.10
2024-01-25T02:59:14.011Z,5.33
2024-01-25T03:01:45.148Z,5.03
2024-01-25T03:04:12.967Z,5.37
2024-01-25T03:06:40.233Z,5.27
2024-01-25T03:09:07.061Z,4.97
2024-01-25T03:11:33.810Z,5.27
2024-01-25T03:14:01.118Z,4.70
2024-01-25T03:16:27.910Z,4.70
2024-01-25T03:18:57.440Z,5.07
2024-01-25T03:21:24.806Z,5.17
2024-01-25T03:23:52.950Z,4.67
2024-01-25T03:26:20.165Z,4.90
2024-01-25T03:28:46.962Z,4.83
2024-01-25T03:31:13.751Z,4.70
2024-01-25T03:33:41.072Z,4.73
2024-01-25T03:36:08.257Z,4.77
2024-01-25T03:38:35.050Z,4.70
2024-01-25T03:41:02.102Z,5.17
2024-01-25T03:43:38.639Z,3.67
2024-01-25T03:46:10.278Z,5.33
2024-01-25T03:48:37.161Z,4.47
2024-01-25T03:51:04.396Z,5.00
2024-01-25T03:53:31.587Z,4.87
2024-01-25T03:55:58.708Z,4.40
2024-01-25T03:58:25.593Z,5.13
2024-01-25T04:00:52.661Z,5.33
2024-01-25T04:03:19.796Z,5.53
2024-01-25T04:05:46.940Z,4.80
2024-01-25T04:08:13.938Z,5.23
2024-01-25T04:10:40.633Z,5.57
2024-01-25T04:13:08.881Z,5.03
2024-01-25T04:15:36.229Z,5.50
2024-01-25T04:18:03.709Z,5.90
2024-01-25T04:20:30.899Z,5.97
2024-01-25T04:22:57.963Z,5.57
2024-01-25T04:25:24.939Z,5.43
2024-01-25T04:27:52.521Z,7.20
2024-01-25T04:30:19.661Z,6.10
2024-01-25T04:32:46.994Z,5.27
2024-01-25T04:35:14.287Z,5.00
2024-01-25T04:37:41.303Z,6.70
2024-01-25T04:40:09.234Z,4.73
2024-01-25T04:42:38.810Z,4.37
2024-01-25T04:45:06.368Z,4.43
2024-01-25T04:47:33.480Z,4.23
2024-01-25T04:50:00.636Z,4.30
2024-01-25T04:52:27.848Z,5.07
2024-01-25T04:54:54.856Z,4.97
2024-01-25T04:57:24.703Z,4.27
2024-01-25T04:59:51.870Z,5.40
2024-01-25T05:02:19.090Z,4.73
2024-01-25T05:04:48.565Z,4.23
2024-01-25T05:07:15.617Z,4.73
2024-01-25T05:09:42.745Z,4.97
2024-01-25T05:12:09.540Z,5.90
2024-01-25T05:14:36.317Z,4.80
2024-01-25T05:17:03.542Z,5.70
2024-01-25T05:19:30.385Z,5.43
2024-01-25T05:21:57.534Z,5.40
2024-01-25T05:24:24.639Z,4.60
2024-01-25T05:26:51.527Z,5.23
2024-01-25T05:29:18.730Z,4.47
2024-01-25T05:31:51.010Z,4.40
2024-01-25T05:34:20.841Z,5.07
2024-01-25T05:36:48.024Z,4.37
2024-01-25T05:39:16.148Z,4.97
2024-01-25T05:41:46.095Z,4.93
2024-01-25T05:44:14.110Z,4.17
2024-01-25T05:46:41.643Z,5.03
2024-01-25T05:49:08.491Z,5.07
2024-01-25T05:51:35.457Z,4.97
2024-01-25T05:54:02.637Z,5.50
2024-01-25T05:56:29.541Z,5.67
2024-01-25T05:58:56.552Z,5.23
2024-01-25T06:01:23.530Z,5.43
2024-01-25T06:03:50.503Z,6.17
2024-01-25T06:06:18.058Z,4.07
2024-01-25T06:08:51.739Z,5.30
2024-01-25T06:11:31.338Z,5.37
2024-01-25T06:13:58.340Z,5.07
2024-01-25T06:16:25.118Z,4.23
2024-01-25T06:18:52.110Z,5.83
2024-01-25T06:21:19.183Z,5.53
2024-01-25T06:23:45.913Z,5.90
2024-01-25T06:26:12.701Z,4.90
2024-01-25T06:28:44.698Z,6.43
2024-01-25T06:31:12.796Z,4.90
2024-01-25T06:33:40.048Z,5.40
2024-01-25T06:36:07.881Z,5.17
2024-01-25T06:38:34.595Z,5.80
2024-01-25T06:41:01.595Z,5.20
2024-01-25T06:43:28.608Z,5.70
2024-01-25T06:45:55.633Z,5.47
2024-01-25T06:48:22.511Z,5.37
2024-01-25T06:50:51.796Z,5.20
2024-01-25T06:53:18.908Z,4.83
2024-01-25T06:55:45.822Z,6.07
2024-01-25T06:58:12.905Z,5.20
2024-01-25T07:00:43.090Z,5.60
2024-01-25T07:03:12.713Z,6.03
2024-01-25T07:05:39.914Z,5.93
2024-01-25T07:08:08.786Z,5.63
2024-01-25T07:10:36.036Z,6.47
2024-01-25T07:13:03.023Z,6.00
2024-01-25T07:15:29.909Z,5.27
2024-01-25T07:17:56.847Z,5.03
2024-01-25T07:20:24.654Z,5.40
2024-01-25T07:22:52.047Z,5.57
2024-01-25T07:25:19.378Z,4.53
2024-01-25T07:27:47.078Z,5.93
2024-01-25T07:30:14.867Z,5.83
2024-01-25T07:32:47.348Z,6.00
2024-01-25T07:35:14.416Z,6.33
2024-01-25T07:37:44.349Z,4.67
2024-01-25T07:40:12.559Z,5.13
2024-01-25T07:42:39.374Z,4.67
2024-01-25T07:45:06.797Z,4.77
2024-01-25T07:47:33.939Z,5.23
2024-01-25T07:50:00.931Z,6.20
2024-01-25T07:52:28.110Z,5.00
2024-01-25T07:54:55.136Z,5.83
2024-01-25T07:57:22.287Z,5.87
2024-01-25T07:59:49.516Z,5.83
2024-01-25T08:02:21.119Z,6.57
2024-01-25T08:04:48.737Z,6.53
2024-01-25T08:07:15.662Z,6.23
2024-01-25T08:09:42.741Z,6.57
2024-01-25T08:12:09.903Z,6.37
2024-01-25T08:14:36.843Z,5.53
2024-01-25T08:17:03.996Z,5.73
2024-01-25T08:19:31.261Z,5.80
2024-01-25T08:21:58.397Z,6.37
2024-01-25T08:24:25.186Z,6.30
2024-01-25T08:26:51.876Z,6.17
2024-01-25T08:29:19.152Z,6.47
2024-01-25T08:31:47.279Z,6.27
2024-01-25T08:34:16.707Z,6.37
2024-01-25T08:36:43.798Z,5.80
2024-01-25T08:39:10.731Z,6.37
2024-01-25T08:41:38.904Z,6.27
2024-01-25T08:44:07.711Z,7.00
2024-01-25T08:46:34.826Z,7.30
2024-01-25T08:49:02.753Z,5.77
2024-01-25T08:51:30.098Z,5.70
2024-01-25T08:53:57.200Z,7.83
2024-01-25T08:56:24.038Z,6.33
2024-01-25T08:58:51.639Z,6.90
2024-01-25T09:01:18.602Z,6.23
2024-01-25T09:03:45.579Z,6.87
2024-01-25T09:06:12.797Z,6.00
2024-01-25T09:08:39.764Z,6.90
2024-01-25T09:11:08.477Z,7.37
2024-01-25T09:13:45.338Z,6.13
2024-01-25T09:16:13.579Z,7.00
2024-01-25T09:18:40.888Z,6.10
2024-01-25T09:21:09.519Z,6.53
2024-01-25T09:23:36.507Z,6.80
2024-01-25T09:26:03.432Z,6.40
2024-01-25T09:28:30.554Z,7.10
2024-01-25T09:30:57.782Z,6.17
2024-01-25T09:33:25.139Z,6.87
2024-01-25T09:35:52.893Z,5.83
2024-01-25T09:38:19.852Z,5.93
2024-01-25T09:40:47.882Z,6.63
2024-01-25T09:43:15.379Z,5.40
2024-01-25T09:45:43.246Z,6.60
2024-01-25T09:48:12.816Z,6.70
2024-01-25T09:50:44.806Z,7.20
2024-01-25T09:53:22.449Z,6.93
2024-01-25T09:56:10.286Z,7.03
2024-01-25T09:58:43.316Z,12.30
2024-01-25T10:01:11.961Z,9.07
2024-01-25T10:03:41.375Z,7.33
2024-01-25T10:06:10.286Z,6.67
2024-01-25T10:08:37.967Z,6.47
2024-01-25T10:11:05.546Z,6.20
2024-01-25T10:13:33.475Z,5.93
2024-01-25T10:16:00.784Z,7.00
2024-01-25T10:18:30.075Z,6.50
2024-01-25T10:21:00.988Z,6.87
2024-01-25T10:23:32.810Z,6.53
2024-01-25T10:26:00.523Z,12.23
2024-01-25T10:28:30.046Z,6.27
2024-01-25T10:31:03.150Z,6.40
2024-01-25T10:33:30.713Z,6.10
2024-01-25T10:36:07.852Z,6.37
2024-01-25T10:38:36.987Z,6.63
2024-01-25T10:41:06.547Z,6.23
2024-01-25T10:43:34.635Z,6.73
2024-01-25T10:46:04.730Z,6.83
2024-01-25T10:48:33.199Z,6.93
2024-01-25T10:51:04.786Z,8.23
2024-01-25T10:53:36.175Z,7.17
2024-01-25T10:56:04.951Z,7.70
2024-01-25T10:58:37.211Z,6.83
2024-01-25T11:01:15.515Z,6.60
2024-01-25T11:03:48.499Z,7.63
2024-01-25T11:06:16.616Z,6.50
2024-01-25T11:08:43.854Z,7.03
2024-01-25T11:11:13.859Z,6.60
2024-01-25T11:13:42.724Z,5.97
2024-01-25T11:16:24.645Z,7.67
2024-01-25T11:18:52.667Z,6.60
2024-01-25T11:21:24.674Z,6.67
2024-01-25T11:24:03.420Z,6.30
2024-01-25T11:26:33.406Z,6.60
2024-01-25T11:29:03.399Z,7.57
2024-01-25T11:31:30.668Z,5.97
2024-01-25T11:34:01.698Z,7.10
2024-01-25T11:36:31.123Z,6.50
2024-01-25T11:38:59.347Z,6.73
2024-01-25T11:41:26.773Z,6.77
2024-01-25T11:43:54.382Z,6.37
2024-01-25T11:46:21.610Z,6.27
2024-01-25T11:48:48.601Z,6.43
2024-01-25T11:51:16.228Z,6.67
2024-01-25T11:53:43.337Z,6.37
2024-01-25T11:56:13.894Z,5.93
2024-01-25T11:58:43.295Z,6.83
2024-01-25T12:01:13.955Z,6.83
2024-01-25T12:03:42.124Z,6.93
2024-01-25T12:06:13.053Z,7.53
2024-01-25T12:08:39.950Z,6.00
2024-01-25T12:11:10.602Z,5.53
2024-01-25T12:13:41.243Z,6.30
2024-01-25T12:16:09.842Z,7.20
2024-01-25T12:18:38.549Z,7.93
2024-01-25T12:21:07.103Z,7.53
2024-01-25T12:23:39.120Z,7.30
2024-01-25T12:26:09.905Z,7.50
2024-01-25T12:28:37.916Z,6.90
2024-01-25T12:31:06.893Z,8.10
2024-01-25T12:33:35.465Z,9.73
2024-01-25T12:36:06.382Z,8.43
2024-01-25T12:38:35.907Z,6.10
2024-01-25T12:41:04.245Z,7.67
2024-01-25T12:43:31.680Z,6.87
2024-01-25T12:46:06.607Z,7.33
2024-01-25T12:48:44.284Z,6.40
2024-01-25T12:51:12.133Z,6.37
2024-01-25T12:53:39.045Z,5.87
2024-01-25T12:56:06.714Z,7.17
2024-01-25T12:58:33.799Z,5.70
2024-01-25T13:01:01.333Z,6.40
2024-01-25T13:03:28.847Z,6.53
2024-01-25T13:05:56.179Z,6.83
2024-01-25T13:08:23.613Z,7.50
2024-01-25T13:10:50.407Z,7.43
2024-01-25T13:13:18.368Z,6.53
2024-01-25T13:15:45.346Z,6.83
2024-01-25T13:18:12.659Z,7.13
2024-01-25T13:20:42.414Z,6.17
2024-01-25T13:23:09.971Z,6.50
2024-01-25T13:25:37.243Z,6.87
2024-01-25T13:28:04.632Z,6.73
2024-01-25T13:30:31.639Z,6.77
2024-01-25T13:32:58.902Z,7.00
2024-01-25T13:35:26.085Z,7.47
2024-01-25T13:37:52.892Z,7.30
2024-01-25T13:40:21.745Z,7.17
2024-01-25T13:42:49.130Z,7.20
2024-01-25T13:45:16.261Z,7.53
2024-01-25T13:47:43.337Z,8.40
2024-01-25T13:50:10.740Z,8.90
2024-01-25T13:52:37.955Z,7.70
2024-01-25T13:55:05.768Z,9.07
2024-01-25T13:57:33.130Z,8.30
2024-01-25T14:00:02.902Z,8.00
2024-01-25T14:02:30.118Z,9.07
2024-01-25T14:04:57.097Z,8.97
2024-01-25T14:07:24.071Z,9.30
2024-01-25T14:09:53.317Z,9.47
2024-01-25T14:12:21.789Z,8.80
2024-01-25T14:14:49.064Z,10.00
2024-01-25T14:17:15.993Z,10.60
2024-01-25T14:19:43.881Z,11.40
2024-01-25T14:22:22.531Z,11.27
2024-01-25T14:24:56.242Z,12.33
2024-01-25T14:27:24.644Z,11.80
2024-01-25T14:29:52.186Z,11.87
2024-01-25T14:32:23.272Z,13.50
2024-01-25T14:34:50.714Z,14.33
2024-01-25T14:37:17.947Z,13.50
2024-01-25T14:39:52.267Z,13.17
2024-01-25T14:42:29.928Z,13.10
2024-01-25T14:44:56.964Z,13.80
2024-01-25T14:47:24.090Z,14.80
2024-01-25T14:49:53.021Z,14.77
2024-01-25T14:52:20.565Z,14.43
2024-01-25T14:54:47.593Z,14.10
2024-01-25T14:57:14.502Z,13.40
2024-01-25T14:59:44.714Z,14.13
2024-01-25T15:02:11.806Z,14.00
2024-01-25T15:04:38.895Z,13.07
2024-01-25T15:07:06.174Z,12.77
2024-01-25T15:09:35.972Z,13.80
2024-01-25T15:12:03.338Z,12.07
2024-01-25T15:14:30.293Z,11.93
2024-01-25T15:17:00.351Z,12.17
2024-01-25T15:19:28.259Z,11.43
2024-01-25T15:21:55.598Z,11.60
2024-01-25T15:24:25.298Z,11.37
2024-01-25T15:26:52.291Z,11.53
2024-01-25T15:29:19.328Z,12.43
2024-01-25T15:31:46.097Z,11.00
2024-01-25T15:34:13.113Z,12.20
2024-01-25T15:36:45.068Z,10.80
2024-01-25T15:39:12.396Z,11.53
2024-01-25T15:41:39.492Z,11.37
2024-01-25T15:44:06.729Z,10.90
2024-01-25T15:46:34.801Z,12.33
2024-01-25T15:49:02.937Z,10.93
2024-01-25T15:51:30.206Z,10.80
2024-01-25T15:53:57.353Z,10.50
2024-01-25T15:56:24.424Z,10.03
2024-01-25T15:58:57.167Z,10.87
2024-01-25T16:01:24.376Z,9.87
2024-01-25T16:03:51.275Z,10.47
2024-01-25T16:06:18.454Z,10.70
2024-01-25T16:08:45.247Z,10.17
2024-01-25T16:11:12.075Z,9.43
2024-01-25T16:13:39.101Z,9.60
2024-01-25T16:16:06.566Z,10.03
2024-01-25T16:18:34.221Z,10.20
2024-01-25T16:21:01.411Z,9.37
2024-01-25T16:23:28.218Z,10.47
2024-01-25T16:25:54.954Z,10.90
2024-01-25T16:28:21.930Z,9.77
2024-01-25T16:30:48.735Z,9.83
2024-01-25T16:33:15.941Z,9.40
2024-01-25T16:35:43.137Z,8.83
2024-01-25T16:38:09.874Z,9.43
2024-01-25T16:40:37.110Z,9.87
2024-01-25T16:43:04.274Z,8.70
2024-01-25T16:45:31.192Z,9.47
2024-01-25T16:47:59.060Z,9.70
2024-01-25T16:50:26.483Z,10.20
2024-01-25T16:52:53.873Z,9.27
2024-01-25T16:55:20.642Z,9.10
2024-01-25T16:57:47.684Z,8.97
2024-01-25T17:00:17.056Z,7.70
2024-01-25T17:02:45.446Z,9.50
2024-01-25T17:05:12.915Z,8.10
2024-01-25T17:07:39.890Z,8.53
2024-01-25T17:10:07.363Z,9.93
2024-01-25T17:12:34.449Z,9.37
2024-01-25T17:15:01.504Z,8.90
2024-01-25T17:17:28.712Z,8.90
2024-01-25T17:19:55.999Z,9.00
2024-01-25T17:22:22.848Z,7.87
2024-01-25T17:24:49.654Z,7.27
2024-01-25T17:27:16.630Z,7.70
2024-01-25T17:29:43.679Z,8.00
2024-01-25T17:32:10.569Z,7.27
2024-01-25T17:34:37.655Z,8.00
2024-01-25T17:37:04.758Z,7.63
2024-01-25T17:39:31.658Z,8.57
2024-01-25T17:41:58.809Z,8.27
2024-01-25T17:44:25.592Z,7.83
2024-01-25T17:46:52.597Z,6.50
2024-01-25T17:49:19.742Z,7.67
2024-01-25T17:51:46.654Z,6.90
2024-01-25T17:54:13.602Z,7.30
2024-01-25T17:56:41.786Z,6.10
2024-01-25T17:59:08.776Z,7.20
2024-01-25T18:01:35.770Z,6.63
2024-01-25T18:04:02.985Z,6.77
2024-01-25T18:06:29.833Z,7.27
2024-01-25T18:08:56.818Z,7.07
2024-01-25T18:11:23.849Z,6.10
2024-01-25T18:13:50.937Z,6.53
2024-01-25T18:16:18.755Z,7.13
2024-01-25T18:18:45.946Z,6.37
2024-01-25T18:21:12.780Z,5.70
2024-01-25T18:23:40.212Z,6.03
2024-01-25T18:26:07.551Z,6.67
2024-01-25T18:28:34.555Z,5.93
2024-01-25T18:31:04.737Z,6.10
2024-01-25T18:33:31.763Z,6.57
2024-01-25T18:35:58.680Z,5.60
2024-01-25T18:38:25.556Z,6.93
2024-01-25T18:40:52.505Z,6.80
2024-01-25T18:43:19.881Z,6.97
2024-01-25T18:45:49.677Z,7.40
2024-01-25T18:48:17.253Z,7.47
2024-01-25T18:50:44.590Z,7.10
2024-01-25T18:53:11.349Z,8.10
2024-01-25T18:55:38.736Z,9.03
2024-01-25T18:58:05.977Z,8.67
2024-01-25T19:00:33.306Z,7.50
2024-01-25T19:03:00.591Z,7.73
2024-01-25T19:05:27.903Z,8.97
2024-01-25T19:07:55.377Z,8.10
2024-01-25T19:10:22.415Z,8.17
2024-01-25T19:12:49.228Z,8.97
2024-01-25T19:15:17.739Z,13.03
2024-01-25T19:17:47.736Z,9.63
2024-01-25T19:20:15.135Z,9.93
2024-01-25T19:22:42.080Z,9.33
2024-01-25T19:25:09.192Z,8.80
2024-01-25T19:27:36.291Z,9.40
2024-01-25T19:30:03.610Z,8.27
2024-01-25T19:32:30.721Z,9.63
2024-01-25T19:34:57.708Z,8.50
2024-01-25T19:37:24.665Z,8.67
2024-01-25T19:39:51.745Z,10.70
2024-01-25T19:42:18.625Z,11.30
2024-01-25T19:44:45.564Z,10.17
2024-01-25T19:47:12.555Z,9.67
2024-01-25T19:49:39.622Z,10.63
2024-01-25T19:52:06.739Z,10.77
2024-01-25T19:54:33.739Z,10.90
2024-01-25T19:57:00.602Z,10.37
2024-01-25T19:59:27.877Z,10.27
2024-01-25T20:01:55.241Z,9.73
2024-01-25T20:04:22.508Z,11.07
2024-01-25T20:06:49.907Z,11.50
2024-01-25T20:09:17.501Z,10.83
2024-01-25T20:11:44.463Z,10.63
2024-01-25T20:14:11.438Z,11.30
2024-01-25T20:16:38.556Z,10.80
2024-01-25T20:19:06.451Z,10.80
2024-01-25T20:21:33.618Z,11.63
2024-01-25T20:24:02.581Z,11.10
2024-01-25T20:26:29.913Z,10.87
2024-01-25T20:28:56.916Z,11.33
2024-01-25T20:31:24.194Z,11.07
2024-01-25T20:33:51.955Z,11.10
2024-01-25T20:36:19.213Z,10.10
2024-01-25T20:38:46.256Z,9.70
2024-01-25T20:41:13.240Z,9.97
2024-01-25T20:43:40.075Z,9.20
2024-01-25T20:46:08.414Z,9.83
2024-01-25T20:48:36.904Z,8.90
2024-01-25T20:51:04.336Z,8.80
2024-01-25T20:53:31.548Z,8.40
2024-01-25T20:55:58.402Z,7.70
2024-01-25T20:58:25.238Z,8.57
2024-01-25T21:00:52.948Z,8.60
2024-01-25T21:03:20.489Z,7.67
2024-01-25T21:05:47.862Z,7.97
2024-01-25T21:08:15.766Z,7.30
2024-01-25T21:10:43.386Z,8.40
2024-01-25T21:13:10.711Z,7.30
2024-01-25T21:15:38.033Z,6.50
2024-01-25T21:18:05.891Z,8.27
2024-01-25T21:20:35.207Z,6.50
2024-01-25T21:23:03.324Z,7.23
2024-01-25T21:25:30.184Z,6.60
2024-01-25T21:27:57.275Z,8.13
2024-01-25T21:30:24.361Z,8.00
2024-01-25T21:32:51.221Z,7.03
2024-01-25T21:35:18.351Z,7.27
2024-01-25T21:37:45.392Z,7.50
2024-01-25T21:40:12.686Z,6.70
2024-01-25T21:42:39.780Z,6.23
2024-01-25T21:45:12.947Z,7.47
2024-01-25T21:47:41.214Z,7.27
2024-01-25T21:50:09.976Z,7.60
2024-01-25T21:52:37.830Z,7.43
2024-01-25T21:55:07.944Z,7.60
2024-01-25T21:57:35.216Z,7.43
2024-01-25T22:00:02.428Z,7.43
2024-01-25T22:02:30.006Z,7.53
2024-01-25T22:04:57.563Z,7.13
2024-01-25T22:07:24.670Z,7.63
2024-01-25T22:09:51.669Z,7.13
2024-01-25T22:12:18.816Z,7.50
2024-01-25T22:14:45.875Z,7.37
2024-01-25T22:17:12.689Z,8.30
2024-01-25T22:19:39.549Z,7.73
2024-01-25T22:22:06.784Z,7.67
2024-01-25T22:24:33.703Z,8.57
2024-01-25T22:27:00.641Z,7.93
2024-01-25T22:29:27.968Z,7.03
2024-01-25T22:31:54.987Z,8.40
2024-01-25T22:34:23.980Z,7.13
2024-01-25T22:36:51.134Z,8.50
2024-01-25T22:39:18.820Z,7.70
2024-01-25T22:41:46.050Z,8.47
2024-01-25T22:44:13.202Z,7.93
2024-01-25T22:46:40.042Z,7.90
2024-01-25T22:49:08.027Z,7.33
2024-01-25T22:51:35.140Z,8.00
2024-01-25T22:54:02.297Z,9.33
2024-01-25T22:56:29.530Z,8.30
2024-01-25T22:58:56.622Z,8.60
2024-01-25T23:01:23.948Z,7.83
2024-01-25T23:03:51.185Z,7.77
2024-01-25T23:06:18.995Z,7.30
2024-01-25T23:08:46.047Z,6.80
2024-01-25T23:11:13.335Z,7.60
2024-01-25T23:13:40.359Z,7.37
2024-01-25T23:16:07.492Z,6.43
2024-01-25T23:18:34.343Z,7.80
2024-01-25T23:21:01.367Z,6.77
2024-01-25T23:23:28.281Z,6.40
2024-01-25T23:25:55.268Z,6.90
2024-01-25T23:28:22.394Z,6.80
2024-01-25T23:30:49.232Z,7.13
2024-01-25T23:33:20.192Z,6.87
2024-01-25T23:35:47.164Z,6.87
2024-01-25T23:38:14.144Z,6.67
2024-01-25T23:40:41.277Z,6.40
2024-01-25T23:43:08.408Z,6.13
2024-01-25T23:45:35.292Z,6.13
2024-01-25T23:48:02.380Z,5.87
2024-01-25T23:50:29.364Z,6.20
2024-01-25T23:52:56.234Z,6.30
2024-01-25T23:55:23.296Z,6.70
2024-01-25T23:57:50.421Z,6.03
